RIPO2: Cimarron River Near Ripley, OK

Data processed at Fri Jan 05 2018 23:01


All information presented herein is the property of the government of the United States of America and may be revised or deleted at any time without prior notice.
Dissemination of this information without the expressed written consent of the Public Affairs Office, Tulsa District U.S. Army Corps of Engineers is strictly prohibited.
These data are gathered electronically and, as presented, have not undergone any form of quality control. These data are not guaranteed to be valid or correct.
Go to home page.
Go to station list.

Upstream stations:

Downstream station:
Previous Day
Next Day
Current Day
    
SHEF ID:       RIPO2     Cimarron River near Ripley, OK
STATION TYPE:  

               PRECIP     STAGE  RIV-FLOW  BAT-LOAD
                   in        ft       cfs      volt
              Ccp-Rev   Ccp-Rev   Ccp-Rev   Ccp-Rev
(US/Central)
01/03 00:00      0.00      8.17       320     12.49
01/03 01:00      0.00      8.17       320     12.41
01/03 02:00      0.00      8.18       324     12.41
01/03 03:00      0.00      8.17       320     12.41
01/03 04:00      0.00      8.14       308     12.41
01/03 05:00      0.00      8.14       308     12.41
01/03 06:00      0.00      8.15       312     12.33
01/03 07:00      0.00      8.14       308     12.33
01/03 08:00      0.00      8.14       308     12.25
01/03 09:00      0.00      8.14       308     12.25
01/03 10:00      0.00      8.12       300     13.05
01/03 11:00      0.00      8.11       296     14.00
01/03 12:00      0.00      8.11       296     14.08
01/03 13:00      0.00      8.10       293     14.08
01/03 14:00      0.00      8.11       296     14.08
01/03 15:00      0.00      8.12       300     14.00
01/03 16:00      0.00      8.19       328     14.00
01/03 17:00      0.00      8.27       361     13.92
01/03 18:00      0.00      8.34       392     13.68
01/03 19:00      0.00      8.36       401     13.21
01/03 20:00      0.00      8.35       396     12.81
01/03 21:00      0.00      8.34       392     12.57
01/03 22:00      0.00      8.33       387     12.49
01/03 23:00      0.00      8.31       378     12.49